Time;durP1;ratioP1;P1;durP2;ratioP2;P2;SDS_P1;SDS_P2;PMS_P1;PMS_P2;Temp;Humidity;BMP_temperature;BMP_pressure;BME280_temperature;BME280_humidity;BME280_pressure;Samples;Min_cycle;Max_cycle;Signal;HPM_P1;HPM_P2
2024/01/12 18:12:04;;;;;;;32.10;14.00;;;;;;;21.65;25.72;99376.39;102524;1291;635928;-59
2024/01/12 18:14:36;;;;;;;26.00;13.80;;;;;;;21.97;25.81;99376.80;104307;1270;94407;-64
2024/01/12 18:17:06;;;;;;;131.10;51.30;;;;;;;21.95;25.31;99379.67;103968;1265;94344;-71
2024/01/12 18:19:34;;;;;;;52.50;22.90;;;;;;;18.09;22.46;99393.40;107717;1263;105894;-75
2024/01/12 18:22:03;;;;;;;41.20;20.10;;;;;;;12.01;22.96;99407.77;107280;1257;95453;-73
2024/01/12 18:24:30;;;;;;;90.00;38.60;;;;;;;7.92;24.57;99419.91;105607;1256;116936;-72
2024/01/12 18:26:58;;;;;;;68.90;30.80;;;;;;;5.22;24.80;99425.04;105292;1255;94331;-73
2024/01/12 18:29:26;;;;;;;60.30;24.90;;;;;;;3.50;27.36;99425.38;105272;1254;94383;-72
2024/01/12 18:31:56;;;;;;;91.20;38.30;;;;;;;1.97;27.43;99423.66;106656;1256;106276;-72
2024/01/12 18:34:24;;;;;;;185.70;66.20;;;;;;;0.96;28.61;99419.66;105813;1256;96328;-73
2024/01/12 18:36:52;;;;;;;97.90;41.50;;;;;;;0.32;27.41;99412.76;106603;1251;107125;-72
2024/01/12 18:39:21;;;;;;;69.40;28.00;;;;;;;-0.10;28.93;99408.55;106821;1253;95544;-71
2024/01/12 18:41:48;;;;;;;59.10;26.60;;;;;;;-0.54;28.45;99415.11;105583;1256;95226;-71
2024/01/12 18:44:16;;;;;;;56.20;22.80;;;;;;;-0.94;28.96;99422.22;105888;1250;106947;-72
2024/01/12 18:46:44;;;;;;;42.70;19.20;;;;;;;-1.22;29.20;99419.45;105924;1251;95282;-72
2024/01/12 18:49:14;;;;;;;73.60;29.30;;;;;;;-1.49;29.49;99415.75;107405;1254;107377;-73
2024/01/12 18:51:42;;;;;;;51.50;20.80;;;;;;;-1.74;29.94;99414.09;106801;1254;95167;-73
2024/01/12 18:54:10;;;;;;;65.70;24.40;;;;;;;-1.90;30.48;99414.35;106563;1254;95340;-72
2024/01/12 18:56:38;;;;;;;71.30;27.20;;;;;;;-2.07;30.60;99405.77;105571;1251;108591;-72
2024/01/12 18:59:06;;;;;;;137.50;42.70;;;;;;;-2.18;31.59;99410.79;106364;1254;95241;-71
2024/01/12 19:01:35;;;;;;;73.10;23.80;;;;;;;-2.31;32.14;99409.94;105900;1256;107634;-72
2024/01/12 19:04:03;;;;;;;93.00;33.70;;;;;;;-2.39;32.57;99401.71;106054;1254;96210;-72
2024/01/12 19:06:31;;;;;;;74.50;25.70;;;;;;;-2.48;33.12;99402.89;105453;1253;95243;-73
2024/01/12 19:09:00;;;;;;;108.10;33.80;;;;;;;-2.53;33.26;99391.51;106611;1254;108647;-73
2024/01/12 19:11:28;;;;;;;99.40;33.60;;;;;;;-2.57;33.55;99383.55;105724;1253;96204;-72
2024/01/12 19:13:57;;;;;;;65.60;23.40;;;;;;;-2.61;33.99;99378.91;106317;1250;108649;-72
2024/01/12 19:16:25;;;;;;;64.20;24.40;;;;;;;-2.61;35.38;99378.05;108539;1250;93879;-72
2024/01/12 19:18:52;;;;;;;52.60;19.40;;;;;;;-2.64;35.04;99376.73;105919;1251;95225;-72
2024/01/12 19:21:21;;;;;;;56.80;21.80;;;;;;;-2.62;36.08;99371.83;108201;1250;109300;-72
2024/01/12 19:23:49;;;;;;;54.90;21.20;;;;;;;-2.64;36.67;99369.95;105749;1257;95269;-73
2024/01/12 19:26:18;;;;;;;79.30;27.30;;;;;;;-2.65;37.30;99373.95;105534;1256;107643;-73
2024/01/12 19:28:45;;;;;;;67.70;23.80;;;;;;;-2.68;36.60;99364.10;107043;1253;96170;-72
2024/01/12 19:31:23;;;;;;;55.80;19.00;;;;;;;-2.66;37.58;99357.48;105497;1256;95245;-72
2024/01/12 19:33:51;;;;;;;53.10;19.20;;;;;;;-2.67;37.18;99346.20;105685;1254;109152;-72
2024/01/12 19:36:19;;;;;;;46.60;17.50;;;;;;;-2.68;38.10;99341.20;106731;1253;96329;-72
2024/01/12 19:38:47;;;;;;;46.60;17.90;;;;;;;-2.66;38.45;99332.98;105634;1254;107283;-72
2024/01/12 19:41:26;;;;;;;45.30;15.70;;;;;;;-2.66;38.10;99327.10;108542;1250;94040;-72
2024/01/12 19:43:54;;;;;;;;;;;;;;;-2.65;39.01;99323.08;105570;1257;95362;-72
2024/01/12 19:46:22;;;;;;;32.60;13.30;;;;;;;-2.68;38.82;99325.89;105354;1256;108572;-71
2024/01/12 19:48:50;;;;;;;53.70;21.10;;;;;;;-2.63;40.51;99326.35;105917;1254;95516;-74
2024/01/12 19:51:25;;;;;;;36.00;15.90;;;;;;;-2.65;40.20;99319.09;105842;1255;107665;-72
2024/01/12 19:53:54;;;;;;;30.20;10.70;;;;;;;-2.65;40.84;99312.66;106621;1254;95550;-72
2024/01/12 19:56:24;;;;;;;38.50;15.50;;;;;;;-2.69;40.88;99312.02;108473;1250;93218;-72
2024/01/12 19:58:54;;;;;;;30.70;12.90;;;;;;;-2.68;40.57;99299.00;106284;1254;110076;-73
2024/01/12 20:01:23;;;;;;;38.40;15.00;;;;;;;-2.70;39.83;99305.27;106082;1254;96178;-71
2024/01/12 20:03:50;;;;;;;26.80;10.80;;;;;;;-2.70;39.25;99310.66;105837;1254;106620;-72
2024/01/12 20:06:23;;;;;;;27.00;11.30;;;;;;;-2.64;40.60;99317.86;108342;1250;94036;-73
2024/01/12 20:08:52;;;;;;;45.90;19.40;;;;;;;-2.63;42.32;99320.27;105715;1256;95208;-71
2024/01/12 20:11:20;;;;;;;69.80;25.50;;;;;;;-2.62;42.66;99311.73;107432;1253;108228;-72
2024/01/12 20:13:49;;;;;;;102.60;32.70;;;;;;;-2.64;42.36;99307.27;107949;1254;95375;-72
2024/01/12 20:16:17;;;;;;;171.40;46.70;;;;;;;-2.62;41.84;99306.19;105891;1250;107110;-72
2024/01/12 20:18:46;;;;;;;188.20;54.50;;;;;;;-2.64;41.91;99300.83;106011;1251;95226;-71
2024/01/12 20:21:15;;;;;;;118.60;36.00;;;;;;;-2.65;41.97;99304.67;106650;1254;95315;-72
2024/01/12 20:23:43;;;;;;;159.00;46.20;;;;;;;-2.65;42.18;99299.81;107028;1254;108513;-72
2024/01/12 20:26:11;;;;;;;105.30;35.70;;;;;;;-2.64;42.03;99297.20;106685;1254;95240;-72
2024/01/12 20:28:39;;;;;;;115.60;36.70;;;;;;;-2.63;42.82;99287.80;105321;1257;107637;-72
2024/01/12 20:31:07;;;;;;;89.20;27.70;;;;;;;-2.63;43.63;99287.27;105890;1254;95735;-72
2024/01/12 20:33:35;;;;;;;63.10;21.10;;;;;;;-2.62;43.70;99288.83;105973;1250;96199;-73
2024/01/12 20:36:09;;;;;;;42.50;15.00;;;;;;;-2.62;43.34;99290.73;107115;1256;109051;-73
2024/01/12 20:38:37;;;;;;;56.00;19.40;;;;;;;-2.60;44.50;99300.08;108594;1250;94602;-71
2024/01/12 20:41:04;;;;;;;40.90;13.90;;;;;;;-2.61;44.02;99292.64;108537;1250;107563;-71
2024/01/12 20:43:32;;;;;;;50.70;18.00;;;;;;;-2.58;45.46;99287.73;106143;1255;96048;-71
2024/01/12 20:46:00;;;;;;;38.00;14.00;;;;;;;-2.60;44.33;99289.31;108415;1250;93696;-71
2024/01/12 20:48:28;;;;;;;40.90;16.30;;;;;;;-2.58;45.71;99287.73;106243;1254;108554;-72
2024/01/12 20:50:57;;;;;;;52.50;19.50;;;;;;;-2.57;45.95;99287.01;107229;1251;95514;-72
2024/01/12 20:53:25;;;;;;;40.00;16.40;;;;;;;-2.56;45.80;99289.09;106796;1250;107633;-72
2024/01/12 20:55:53;;;;;;;40.20;15.50;;;;;;;-2.54;47.22;99293.39;105249;1259;95273;-72
2024/01/12 20:58:21;;;;;;;35.40;15.30;;;;;;;-2.54;47.82;99289.41;105347;1256;95525;-72
2024/01/12 21:00:48;;;;;;;46.20;17.60;;;;;;;-2.56;47.72;99287.35;107087;1255;108867;-73
2024/01/12 21:03:16;;;;;;;45.70;17.60;;;;;;;-2.59;46.08;99273.67;106590;1250;95474;-72
2024/01/12 21:05:45;;;;;;;27.90;12.10;;;;;;;-2.56;48.11;99273.10;105875;1256;107595;-72
2024/01/12 21:08:13;;;;;;;38.90;14.90;;;;;;;-2.55;47.87;99272.93;105567;1256;95275;-72
2024/01/12 21:10:41;;;;;;;35.00;14.50;;;;;;;-2.57;47.05;99279.04;108289;1250;94309;-73
2024/01/12 21:13:09;;;;;;;37.70;13.90;;;;;;;-2.56;47.40;99269.98;105845;1250;108600;-72
2024/01/12 21:15:36;;;;;;;40.20;15.70;;;;;;;-2.53;47.61;99266.81;105428;1256;95185;-73
2024/01/12 21:18:05;;;;;;;28.70;12.50;;;;;;;-2.55;47.66;99267.36;105715;1250;107322;-72
2024/01/12 21:20:36;;;;;;;34.10;15.40;;;;;;;-2.55;48.31;99264.23;106641;1253;95230;-73
2024/01/12 21:23:04;;;;;;;31.90;12.50;;;;;;;-2.57;46.65;99267.20;105906;1255;96216;-73
2024/01/12 21:25:32;;;;;;;33.90;14.30;;;;;;;-2.56;48.09;99261.30;106151;1256;108157;-73
2024/01/12 21:28:00;;;;;;;32.50;13.10;;;;;;;-2.54;47.64;99258.67;105871;1256;95999;-73
2024/01/12 21:30:28;;;;;;;37.90;17.00;;;;;;;-2.53;47.76;99252.74;106266;1255;106416;-72
2024/01/12 21:32:56;;;;;;;39.80;16.70;;;;;;;-2.51;47.91;99248.73;105747;1255;96069;-72
2024/01/12 21:35:24;;;;;;;44.20;17.80;;;;;;;-2.50;48.07;99253.92;106031;1255;95139;-72
2024/01/12 21:37:53;;;;;;;34.10;15.10;;;;;;;-2.48;48.37;99254.58;105709;1250;108502;-71
2024/01/12 21:40:21;;;;;;;33.70;15.20;;;;;;;-2.46;49.39;99245.35;107732;1256;95520;-72
2024/01/12 21:42:49;;;;;;;66.20;26.60;;;;;;;-2.46;48.80;99248.64;105873;1250;107585;-72
2024/01/12 21:45:17;;;;;;;41.20;18.20;;;;;;;-2.44;48.79;99246.16;105683;1250;95237;-72
2024/01/12 21:47:44;;;;;;;33.20;13.90;;;;;;;-2.44;48.44;99241.83;105763;1254;95246;-72
2024/01/12 21:50:13;;;;;;;28.60;12.60;;;;;;;-2.41;49.04;99238.83;105764;1250;108950;-71
2024/01/12 21:52:40;;;;;;;27.60;12.70;;;;;;;-2.40;49.14;99239.31;108482;1250;97059;-72
2024/01/12 21:55:08;;;;;;;31.40;12.20;;;;;;;-2.40;49.71;99234.46;107164;1251;107113;-72
2024/01/12 21:57:36;;;;;;;23.10;11.60;;;;;;;-2.39;50.13;99235.48;105517;1257;95255;-72
2024/01/12 22:00:07;;;;;;;37.50;13.80;;;;;;;-2.39;49.40;99233.94;105872;1256;96190;-73
2024/01/12 22:02:35;;;;;;;41.70;14.60;;;;;;;-2.37;50.09;99233.90;105599;1255;108448;-72
2024/01/12 22:05:04;;;;;;;23.50;10.40;;;;;;;-2.39;49.90;99228.55;105446;1265;96057;-73
2024/01/12 22:07:36;;;;;;;36.40;14.80;;;;;;;-2.37;50.81;99232.50;105681;1256;107765;-72
2024/01/12 22:10:05;;;;;;;32.20;13.40;;;;;;;-2.38;50.40;99233.04;105457;1250;95202;-72
2024/01/12 22:12:33;;;;;;;33.80;13.50;;;;;;;-2.36;51.13;99236.48;105669;1251;96134;-72
2024/01/12 22:15:01;;;;;;;25.60;10.20;;;;;;;-2.36;51.69;99230.94;105528;1266;107525;-73
2024/01/12 22:17:29;;;;;;;32.60;11.70;;;;;;;-2.38;51.67;99231.83;105711;1253;95812;-72
2024/01/12 22:19:57;;;;;;;38.90;14.70;;;;;;;-2.41;51.82;99231.86;105709;1256;105397;-71
2024/01/12 22:22:25;;;;;;;38.20;14.20;;;;;;;-2.43;51.81;99231.38;105588;1256;97223;-72
2024/01/12 22:24:53;;;;;;;29.00;11.20;;;;;;;-2.44;51.60;99232.27;105441;1258;96607;-72
2024/01/12 22:27:21;;;;;;;36.10;14.80;;;;;;;-2.44;53.15;99226.89;106058;1256;108089;-73
2024/01/12 22:29:49;;;;;;;32.20;13.50;;;;;;;-2.46;52.49;99219.11;105252;1259;96607;-73
2024/01/12 22:32:17;;;;;;;38.60;15.80;;;;;;;-2.48;52.28;99216.90;106641;1256;106319;-72
2024/01/12 22:34:45;;;;;;;42.20;16.90;;;;;;;-2.46;52.48;99222.95;105463;1256;96692;-72
2024/01/12 22:37:13;;;;;;;35.30;14.10;;;;;;;-2.47;52.33;99221.75;105393;1256;96399;-72
2024/01/12 22:39:40;;;;;;;44.50;16.60;;;;;;;-2.47;52.74;99214.61;105782;1256;110778;-72
2024/01/12 22:42:08;;;;;;;36.70;13.70;;;;;;;-2.46;53.12;99215.81;105752;1254;97161;-72
2024/01/12 22:44:36;;;;;;;25.00;11.90;;;;;;;-2.46;54.10;99213.75;105512;1257;107511;-72
2024/01/12 22:47:04;;;;;;;27.60;11.60;;;;;;;-2.48;52.91;99205.61;108428;1250;95047;-71
2024/01/12 22:49:32;;;;;;;20.20;9.90;;;;;;;-2.47;53.79;99197.08;106895;1253;96563;-71
2024/01/12 22:52:00;;;;;;;19.60;10.40;;;;;;;-2.47;53.88;99196.39;106072;1256;109301;-72
2024/01/12 22:54:28;;;;;;;26.40;10.90;;;;;;;-2.49;53.61;99197.64;105681;1250;97914;-73
2024/01/12 22:56:56;;;;;;;34.90;12.10;;;;;;;-2.49;53.48;99197.64;106014;1255;107295;-73
2024/01/12 22:59:24;;;;;;;28.50;12.00;;;;;;;-2.47;53.70;99201.77;108461;1250;94640;-71
2024/01/12 23:01:52;;;;;;;27.40;11.50;;;;;;;-2.47;53.91;99202.98;108719;1250;94488;-72
2024/01/12 23:04:20;;;;;;;35.90;13.60;;;;;;;-2.47;53.91;99208.02;108703;1250;109945;-71
2024/01/12 23:06:48;;;;;;;29.40;12.80;;;;;;;-2.47;54.37;99205.08;108778;1250;94462;-72
2024/01/12 23:09:15;;;;;;;26.30;12.40;;;;;;;-2.49;54.41;99207.37;108746;1250;107621;-72
2024/01/12 23:11:43;;;;;;;27.70;11.90;;;;;;;-2.48;55.40;99206.65;108744;1250;94761;-72
2024/01/12 23:14:11;;;;;;;25.30;12.00;;;;;;;-2.51;56.68;99201.65;108761;1250;94241;-72
2024/01/12 23:16:39;;;;;;;37.40;14.70;;;;;;;-2.58;54.86;99196.73;106549;1255;109855;-72
2024/01/12 23:19:08;;;;;;;32.30;14.00;;;;;;;-2.58;54.87;99195.88;108473;1250;95207;-73
2024/01/12 23:21:37;;;;;;;27.10;13.40;;;;;;;-2.58;54.74;99195.70;107265;1255;107273;-74
2024/01/12 23:24:05;;;;;;;22.40;11.40;;;;;;;-2.59;54.60;99191.73;105880;1256;97272;-73
2024/01/12 23:26:35;;;;;;;20.80;9.60;;;;;;;-2.57;54.71;99187.70;105955;1258;96578;-73
2024/01/12 23:29:03;;;;;;;32.70;12.80;;;;;;;-2.59;54.91;99176.96;106544;1249;110172;-71
2024/01/12 23:31:31;;;;;;;28.10;12.10;;;;;;;-2.57;55.09;99177.61;105576;1256;96652;-72
2024/01/12 23:33:59;;;;;;;21.70;10.60;;;;;;;-2.57;54.75;99170.52;106627;1253;107691;-72
2024/01/12 23:36:27;;;;;;;26.70;10.80;;;;;;;-2.56;55.16;99165.27;106022;1256;96584;-73
2024/01/12 23:38:55;;;;;;;28.50;13.20;;;;;;;-2.54;56.46;99165.06;106028;1254;96621;-75
2024/01/12 23:41:29;;;;;;;25.30;11.50;;;;;;;-2.55;55.20;99159.19;105517;1256;109970;-72
2024/01/12 23:44:00;;;;;;;22.10;10.60;;;;;;;-2.52;55.89;99163.66;108539;1250;95289;-72
2024/01/12 23:46:28;;;;;;;27.40;11.80;;;;;;;-2.53;55.89;99157.08;105582;1256;107245;-72
2024/01/12 23:48:56;;;;;;;18.80;9.70;;;;;;;-2.52;55.49;99168.16;105664;1256;96602;-73
2024/01/12 23:51:24;;;;;;;24.60;11.90;;;;;;;-2.50;55.84;99168.84;107609;1253;96582;-72
2024/01/12 23:53:52;;;;;;;26.90;10.90;;;;;;;-2.51;55.97;99162.60;108188;1253;110290;-73
2024/01/12 23:56:20;;;;;;;18.40;9.30;;;;;;;-2.47;56.59;99156.80;105891;1253;96513;-71
2024/01/12 23:58:48;;;;;;;24.10;10.00;;;;;;;-2.45;57.12;99166.48;105566;1262;107464;-73
